KOUN/OUN METAR and TAF weather

Enter ICAO airport designator
Station Type Date Time Source
KOUN METAR 2019/08/23 14:45 UTC NOAA

KOUN 231445Z 08014KT 10SM BKN007 BKN010 OVC028 22/21 A3000 RMK LTG DSNT NE THRU S


Station Type Date Time Source
KOUN Decoded METAR 2019/08/23 14:45 UTC NOAA

Station name not available
Aug 23, 2019 - 10:45 AM EDT / 2019.08.23 1445 UTC
Wind: from the E (080 degrees) at 16 MPH (14 KT):0
Visibility: 10 mile(s):0
Sky conditions: overcast
Weather: Lightning observed
Temperature: 71 F (22 C)
Dew Point: 69 F (21 C)
Relative Humidity: 94%
Pressure (altimeter): 30 in. Hg (1015 hPa)
ob: KOUN 231445Z 08014KT 10SM BKN007 BKN010 OVC028 22/21 A3000 RMK LTG DSNT NE THRU S
cycle: 15

Station Type Date Time Source
KOUN TAF 2019/08/23 14:06 UTC NOAA

TAF
AMD KOUN 231404Z 2314/2412 09005KT P6SM SCT008 BKN015
TEMPO 2314/2315 BKN007
FM231600 13010KT P6SM BKN040 BKN250

Example: see airport list